sensor_id;sensor_type;location;lat;lon;timestamp;P1;durP1;ratioP1;P2;durP2;ratioP2
59974;SDS011;62136;-35.664;-63.766;2024-02-21T00:01:57;5.65;;;1.85;;
59974;SDS011;62136;-35.664;-63.766;2024-02-21T00:04:24;3.00;;;1.83;;
59974;SDS011;62136;-35.664;-63.766;2024-02-21T00:06:51;2.53;;;1.90;;
59974;SDS011;62136;-35.664;-63.766;2024-02-21T00:09:18;3.30;;;1.92;;
59974;SDS011;62136;-35.664;-63.766;2024-02-21T00:11:45;2.70;;;1.83;;
59974;SDS011;62136;-35.664;-63.766;2024-02-21T00:14:13;4.07;;;1.65;;
59974;SDS011;62136;-35.664;-63.766;2024-02-21T00:16:40;1.95;;;1.75;;
59974;SDS011;62136;-35.664;-63.766;2024-02-21T00:19:07;2.45;;;1.58;;
59974;SDS011;62136;-35.664;-63.766;2024-02-21T00:21:34;2.35;;;1.80;;
59974;SDS011;62136;-35.664;-63.766;2024-02-21T00:24:01;4.07;;;1.73;;
59974;SDS011;62136;-35.664;-63.766;2024-02-21T00:26:27;2.33;;;1.55;;
59974;SDS011;62136;-35.664;-63.766;2024-02-21T00:28:54;2.28;;;1.50;;
59974;SDS011;62136;-35.664;-63.766;2024-02-21T00:31:21;4.28;;;1.95;;
59974;SDS011;62136;-35.664;-63.766;2024-02-21T00:33:48;1.60;;;1.50;;
59974;SDS011;62136;-35.664;-63.766;2024-02-21T00:36:16;4.80;;;2.00;;
59974;SDS011;62136;-35.664;-63.766;2024-02-21T00:38:43;3.60;;;1.90;;
59974;SDS011;62136;-35.664;-63.766;2024-02-21T00:41:10;3.70;;;1.95;;
59974;SDS011;62136;-35.664;-63.766;2024-02-21T00:43:37;2.80;;;2.00;;
59974;SDS011;62136;-35.664;-63.766;2024-02-21T00:46:05;3.33;;;1.70;;
59974;SDS011;62136;-35.664;-63.766;2024-02-21T00:48:33;3.97;;;2.40;;
59974;SDS011;62136;-35.664;-63.766;2024-02-21T00:51:00;4.10;;;2.00;;
59974;SDS011;62136;-35.664;-63.766;2024-02-21T00:53:27;3.88;;;1.77;;
59974;SDS011;62136;-35.664;-63.766;2024-02-21T00:55:54;3.50;;;1.80;;
59974;SDS011;62136;-35.664;-63.766;2024-02-21T00:58:22;2.15;;;1.60;;
59974;SDS011;62136;-35.664;-63.766;2024-02-21T01:00:49;4.55;;;1.92;;
59974;SDS011;62136;-35.664;-63.766;2024-02-21T01:03:16;4.00;;;1.83;;
59974;SDS011;62136;-35.664;-63.766;2024-02-21T01:05:43;4.00;;;2.00;;
59974;SDS011;62136;-35.664;-63.766;2024-02-21T01:08:10;2.25;;;1.65;;
59974;SDS011;62136;-35.664;-63.766;2024-02-21T01:10:37;1.80;;;1.48;;
59974;SDS011;62136;-35.664;-63.766;2024-02-21T01:13:04;4.40;;;1.73;;
59974;SDS011;62136;-35.664;-63.766;2024-02-21T01:15:32;2.85;;;1.88;;
59974;SDS011;62136;-35.664;-63.766;2024-02-21T01:17:59;2.67;;;1.73;;
59974;SDS011;62136;-35.664;-63.766;2024-02-21T01:20:27;1.95;;;1.65;;
59974;SDS011;62136;-35.664;-63.766;2024-02-21T01:22:54;3.47;;;1.60;;
59974;SDS011;62136;-35.664;-63.766;2024-02-21T01:25:21;3.78;;;1.83;;
59974;SDS011;62136;-35.664;-63.766;2024-02-21T01:27:49;3.83;;;1.98;;
59974;SDS011;62136;-35.664;-63.766;2024-02-21T01:30:16;2.53;;;1.77;;
59974;SDS011;62136;-35.664;-63.766;2024-02-21T01:32:43;2.85;;;1.70;;
59974;SDS011;62136;-35.664;-63.766;2024-02-21T01:35:10;4.20;;;1.90;;
59974;SDS011;62136;-35.664;-63.766;2024-02-21T01:37:37;3.00;;;1.98;;
59974;SDS011;62136;-35.664;-63.766;2024-02-21T01:40:07;3.45;;;1.70;;
59974;SDS011;62136;-35.664;-63.766;2024-02-21T01:42:37;2.83;;;1.80;;
59974;SDS011;62136;-35.664;-63.766;2024-02-21T01:45:07;3.30;;;1.52;;
59974;SDS011;62136;-35.664;-63.766;2024-02-21T01:47:35;2.15;;;1.58;;
59974;SDS011;62136;-35.664;-63.766;2024-02-21T01:52:33;5.70;;;2.05;;
59974;SDS011;62136;-35.664;-63.766;2024-02-21T01:55:01;2.58;;;1.80;;
59974;SDS011;62136;-35.664;-63.766;2024-02-21T01:57:28;1.70;;;1.60;;
59974;SDS011;62136;-35.664;-63.766;2024-02-21T01:59:56;3.33;;;1.73;;
59974;SDS011;62136;-35.664;-63.766;2024-02-21T02:02:23;2.33;;;1.58;;
59974;SDS011;62136;-35.664;-63.766;2024-02-21T02:04:51;4.75;;;1.75;;
59974;SDS011;62136;-35.664;-63.766;2024-02-21T02:07:18;3.55;;;1.50;;
59974;SDS011;62136;-35.664;-63.766;2024-02-21T02:09:45;3.53;;;2.08;;
59974;SDS011;62136;-35.664;-63.766;2024-02-21T02:12:12;2.53;;;1.55;;
59974;SDS011;62136;-35.664;-63.766;2024-02-21T02:14:39;2.58;;;2.00;;
59974;SDS011;62136;-35.664;-63.766;2024-02-21T02:17:06;3.08;;;1.77;;
59974;SDS011;62136;-35.664;-63.766;2024-02-21T02:19:35;3.50;;;1.80;;
59974;SDS011;62136;-35.664;-63.766;2024-02-21T02:22:06;3.05;;;1.83;;
59974;SDS011;62136;-35.664;-63.766;2024-02-21T02:24:46;2.22;;;1.95;;
59974;SDS011;62136;-35.664;-63.766;2024-02-21T02:27:12;2.30;;;1.60;;
59974;SDS011;62136;-35.664;-63.766;2024-02-21T02:29:40;2.58;;;1.60;;
59974;SDS011;62136;-35.664;-63.766;2024-02-21T02:32:07;3.92;;;2.00;;
59974;SDS011;62136;-35.664;-63.766;2024-02-21T02:34:34;2.47;;;1.95;;
59974;SDS011;62136;-35.664;-63.766;2024-02-21T02:37:01;2.72;;;1.67;;
59974;SDS011;62136;-35.664;-63.766;2024-02-21T02:39:28;2.35;;;1.80;;
59974;SDS011;62136;-35.664;-63.766;2024-02-21T02:41:55;3.17;;;1.92;;
59974;SDS011;62136;-35.664;-63.766;2024-02-21T02:44:22;3.45;;;1.70;;
59974;SDS011;62136;-35.664;-63.766;2024-02-21T02:46:49;3.83;;;1.65;;
59974;SDS011;62136;-35.664;-63.766;2024-02-21T02:49:16;3.28;;;1.90;;
59974;SDS011;62136;-35.664;-63.766;2024-02-21T02:51:43;3.25;;;1.60;;
59974;SDS011;62136;-35.664;-63.766;2024-02-21T02:54:10;2.65;;;1.65;;
59974;SDS011;62136;-35.664;-63.766;2024-02-21T02:56:37;2.22;;;1.70;;
59974;SDS011;62136;-35.664;-63.766;2024-02-21T02:59:05;2.47;;;1.77;;
59974;SDS011;62136;-35.664;-63.766;2024-02-21T03:01:33;2.35;;;1.60;;
59974;SDS011;62136;-35.664;-63.766;2024-02-21T03:04:01;2.38;;;1.90;;
59974;SDS011;62136;-35.664;-63.766;2024-02-21T03:06:28;2.47;;;1.67;;
59974;SDS011;62136;-35.664;-63.766;2024-02-21T03:08:55;4.68;;;1.85;;
59974;SDS011;62136;-35.664;-63.766;2024-02-21T03:11:22;3.55;;;1.85;;
59974;SDS011;62136;-35.664;-63.766;2024-02-21T03:13:55;2.13;;;1.52;;
59974;SDS011;62136;-35.664;-63.766;2024-02-21T03:16:22;2.63;;;1.42;;
59974;SDS011;62136;-35.664;-63.766;2024-02-21T03:18:49;2.65;;;1.55;;
59974;SDS011;62136;-35.664;-63.766;2024-02-21T03:21:16;1.77;;;1.50;;
59974;SDS011;62136;-35.664;-63.766;2024-02-21T03:23:43;2.05;;;1.70;;
59974;SDS011;62136;-35.664;-63.766;2024-02-21T03:26:10;2.53;;;1.75;;
59974;SDS011;62136;-35.664;-63.766;2024-02-21T03:28:37;2.65;;;1.77;;
59974;SDS011;62136;-35.664;-63.766;2024-02-21T03:31:05;3.67;;;1.75;;
59974;SDS011;62136;-35.664;-63.766;2024-02-21T03:33:32;2.33;;;1.45;;
59974;SDS011;62136;-35.664;-63.766;2024-02-21T03:35:59;1.92;;;1.60;;
59974;SDS011;62136;-35.664;-63.766;2024-02-21T03:38:26;3.92;;;1.95;;
59974;SDS011;62136;-35.664;-63.766;2024-02-21T03:40:53;2.08;;;1.70;;
59974;SDS011;62136;-35.664;-63.766;2024-02-21T03:43:20;2.15;;;1.75;;
59974;SDS011;62136;-35.664;-63.766;2024-02-21T03:45:47;4.25;;;1.80;;
59974;SDS011;62136;-35.664;-63.766;2024-02-21T03:48:14;2.08;;;1.65;;
59974;SDS011;62136;-35.664;-63.766;2024-02-21T03:50:40;2.60;;;1.67;;
59974;SDS011;62136;-35.664;-63.766;2024-02-21T03:53:08;2.00;;;1.48;;
59974;SDS011;62136;-35.664;-63.766;2024-02-21T03:55:35;3.35;;;1.88;;
59974;SDS011;62136;-35.664;-63.766;2024-02-21T03:58:02;2.33;;;1.40;;
59974;SDS011;62136;-35.664;-63.766;2024-02-21T04:00:29;2.50;;;1.67;;
59974;SDS011;62136;-35.664;-63.766;2024-02-21T04:02:56;1.90;;;1.70;;
59974;SDS011;62136;-35.664;-63.766;2024-02-21T04:05:23;2.05;;;1.55;;
59974;SDS011;62136;-35.664;-63.766;2024-02-21T04:07:50;1.83;;;1.30;;
59974;SDS011;62136;-35.664;-63.766;2024-02-21T04:10:17;1.35;;;1.25;;
59974;SDS011;62136;-35.664;-63.766;2024-02-21T04:12:44;3.03;;;1.50;;
59974;SDS011;62136;-35.664;-63.766;2024-02-21T04:15:11;3.45;;;1.42;;
59974;SDS011;62136;-35.664;-63.766;2024-02-21T04:17:41;1.73;;;1.38;;
59974;SDS011;62136;-35.664;-63.766;2024-02-21T04:20:13;2.58;;;1.70;;
59974;SDS011;62136;-35.664;-63.766;2024-02-21T04:22:44;2.93;;;1.77;;
59974;SDS011;62136;-35.664;-63.766;2024-02-21T04:25:12;2.95;;;1.60;;
59974;SDS011;62136;-35.664;-63.766;2024-02-21T04:27:39;3.70;;;1.42;;
59974;SDS011;62136;-35.664;-63.766;2024-02-21T04:30:06;1.73;;;1.50;;
59974;SDS011;62136;-35.664;-63.766;2024-02-21T04:32:35;2.92;;;1.58;;
59974;SDS011;62136;-35.664;-63.766;2024-02-21T04:35:02;1.60;;;1.50;;
59974;SDS011;62136;-35.664;-63.766;2024-02-21T04:37:29;3.05;;;1.48;;
59974;SDS011;62136;-35.664;-63.766;2024-02-21T04:39:56;1.75;;;1.40;;
59974;SDS011;62136;-35.664;-63.766;2024-02-21T04:42:23;2.38;;;1.45;;
59974;SDS011;62136;-35.664;-63.766;2024-02-21T04:44:50;3.75;;;1.50;;
59974;SDS011;62136;-35.664;-63.766;2024-02-21T04:47:18;1.60;;;1.50;;
59974;SDS011;62136;-35.664;-63.766;2024-02-21T04:49:50;2.05;;;1.40;;
59974;SDS011;62136;-35.664;-63.766;2024-02-21T04:52:17;3.55;;;1.60;;
59974;SDS011;62136;-35.664;-63.766;2024-02-21T04:54:44;1.95;;;1.65;;
59974;SDS011;62136;-35.664;-63.766;2024-02-21T04:57:11;2.92;;;1.83;;
59974;SDS011;62136;-35.664;-63.766;2024-02-21T04:59:44;2.67;;;1.73;;
59974;SDS011;62136;-35.664;-63.766;2024-02-21T05:02:13;2.13;;;1.40;;
59974;SDS011;62136;-35.664;-63.766;2024-02-21T05:04:40;2.70;;;1.58;;
59974;SDS011;62136;-35.664;-63.766;2024-02-21T05:07:08;3.10;;;1.40;;
59974;SDS011;62136;-35.664;-63.766;2024-02-21T05:09:37;3.30;;;1.60;;
59974;SDS011;62136;-35.664;-63.766;2024-02-21T05:12:04;1.70;;;1.38;;
59974;SDS011;62136;-35.664;-63.766;2024-02-21T05:14:31;2.92;;;1.40;;
59974;SDS011;62136;-35.664;-63.766;2024-02-21T05:16:58;2.65;;;1.35;;
59974;SDS011;62136;-35.664;-63.766;2024-02-21T05:19:25;2.20;;;1.48;;
59974;SDS011;62136;-35.664;-63.766;2024-02-21T05:21:52;2.03;;;1.50;;
59974;SDS011;62136;-35.664;-63.766;2024-02-21T05:24:19;1.95;;;1.20;;
59974;SDS011;62136;-35.664;-63.766;2024-02-21T05:26:46;2.08;;;1.40;;
59974;SDS011;62136;-35.664;-63.766;2024-02-21T05:29:13;2.67;;;1.40;;
59974;SDS011;62136;-35.664;-63.766;2024-02-21T05:32:13;3.20;;;1.40;;
59974;SDS011;62136;-35.664;-63.766;2024-02-21T05:34:33;1.90;;;1.52;;
59974;SDS011;62136;-35.664;-63.766;2024-02-21T05:37:00;2.58;;;1.20;;
59974;SDS011;62136;-35.664;-63.766;2024-02-21T05:39:27;1.40;;;1.30;;
59974;SDS011;62136;-35.664;-63.766;2024-02-21T05:41:54;2.50;;;1.50;;
59974;SDS011;62136;-35.664;-63.766;2024-02-21T05:44:21;1.80;;;1.42;;
59974;SDS011;62136;-35.664;-63.766;2024-02-21T05:46:48;2.17;;;1.45;;
59974;SDS011;62136;-35.664;-63.766;2024-02-21T05:49:15;1.40;;;1.30;;
59974;SDS011;62136;-35.664;-63.766;2024-02-21T05:51:42;2.03;;;1.40;;
59974;SDS011;62136;-35.664;-63.766;2024-02-21T05:54:09;3.30;;;1.60;;
59974;SDS011;62136;-35.664;-63.766;2024-02-21T05:56:36;1.70;;;1.60;;
59974;SDS011;62136;-35.664;-63.766;2024-02-21T05:59:03;3.28;;;1.52;;
59974;SDS011;62136;-35.664;-63.766;2024-02-21T06:01:30;2.20;;;1.40;;
59974;SDS011;62136;-35.664;-63.766;2024-02-21T06:03:57;2.70;;;1.40;;
59974;SDS011;62136;-35.664;-63.766;2024-02-21T06:06:24;1.63;;;1.52;;
59974;SDS011;62136;-35.664;-63.766;2024-02-21T06:08:51;2.63;;;1.70;;
59974;SDS011;62136;-35.664;-63.766;2024-02-21T06:11:18;1.88;;;1.40;;
59974;SDS011;62136;-35.664;-63.766;2024-02-21T06:13:45;2.25;;;1.27;;
59974;SDS011;62136;-35.664;-63.766;2024-02-21T06:16:12;3.35;;;1.50;;
59974;SDS011;62136;-35.664;-63.766;2024-02-21T06:18:42;2.25;;;1.60;;
59974;SDS011;62136;-35.664;-63.766;2024-02-21T06:21:09;1.75;;;1.33;;
59974;SDS011;62136;-35.664;-63.766;2024-02-21T06:23:37;1.67;;;1.40;;
59974;SDS011;62136;-35.664;-63.766;2024-02-21T06:26:04;1.85;;;1.55;;
59974;SDS011;62136;-35.664;-63.766;2024-02-21T06:28:31;1.83;;;1.38;;
59974;SDS011;62136;-35.664;-63.766;2024-02-21T06:30:58;2.05;;;1.50;;
59974;SDS011;62136;-35.664;-63.766;2024-02-21T06:33:25;1.80;;;1.15;;
59974;SDS011;62136;-35.664;-63.766;2024-02-21T06:35:53;2.53;;;1.23;;
59974;SDS011;62136;-35.664;-63.766;2024-02-21T06:38:20;1.42;;;1.33;;
59974;SDS011;62136;-35.664;-63.766;2024-02-21T06:40:47;1.20;;;1.10;;
59974;SDS011;62136;-35.664;-63.766;2024-02-21T06:43:20;1.38;;;1.25;;
59974;SDS011;62136;-35.664;-63.766;2024-02-21T06:45:47;1.40;;;1.30;;
59974;SDS011;62136;-35.664;-63.766;2024-02-21T06:48:16;1.70;;;1.48;;
59974;SDS011;62136;-35.664;-63.766;2024-02-21T06:50:44;2.25;;;1.55;;
59974;SDS011;62136;-35.664;-63.766;2024-02-21T06:53:12;2.97;;;1.45;;
59974;SDS011;62136;-35.664;-63.766;2024-02-21T06:55:39;2.58;;;1.20;;
59974;SDS011;62136;-35.664;-63.766;2024-02-21T06:58:06;2.42;;;1.30;;
59974;SDS011;62136;-35.664;-63.766;2024-02-21T07:00:37;2.38;;;1.48;;
59974;SDS011;62136;-35.664;-63.766;2024-02-21T07:03:05;1.85;;;1.40;;
59974;SDS011;62136;-35.664;-63.766;2024-02-21T07:05:32;1.83;;;1.30;;
59974;SDS011;62136;-35.664;-63.766;2024-02-21T07:07:59;1.40;;;1.30;;
59974;SDS011;62136;-35.664;-63.766;2024-02-21T07:10:26;2.85;;;1.33;;
59974;SDS011;62136;-35.664;-63.766;2024-02-21T07:12:54;2.28;;;1.50;;
59974;SDS011;62136;-35.664;-63.766;2024-02-21T07:15:22;2.88;;;1.40;;
59974;SDS011;62136;-35.664;-63.766;2024-02-21T07:17:52;1.70;;;1.33;;
59974;SDS011;62136;-35.664;-63.766;2024-02-21T07:20:19;1.67;;;1.20;;
59974;SDS011;62136;-35.664;-63.766;2024-02-21T07:22:46;2.38;;;1.50;;
59974;SDS011;62136;-35.664;-63.766;2024-02-21T07:25:13;1.65;;;1.40;;
59974;SDS011;62136;-35.664;-63.766;2024-02-21T07:27:40;2.45;;;1.38;;
59974;SDS011;62136;-35.664;-63.766;2024-02-21T07:30:08;2.53;;;1.38;;
59974;SDS011;62136;-35.664;-63.766;2024-02-21T07:32:35;2.15;;;1.27;;
59974;SDS011;62136;-35.664;-63.766;2024-02-21T07:35:02;1.40;;;1.30;;
59974;SDS011;62136;-35.664;-63.766;2024-02-21T07:37:29;2.95;;;1.40;;
59974;SDS011;62136;-35.664;-63.766;2024-02-21T07:39:56;2.70;;;1.20;;
59974;SDS011;62136;-35.664;-63.766;2024-02-21T07:42:23;2.03;;;1.33;;
59974;SDS011;62136;-35.664;-63.766;2024-02-21T07:44:50;2.40;;;1.30;;
59974;SDS011;62136;-35.664;-63.766;2024-02-21T07:47:17;1.52;;;1.40;;
59974;SDS011;62136;-35.664;-63.766;2024-02-21T07:49:44;1.90;;;1.48;;
59974;SDS011;62136;-35.664;-63.766;2024-02-21T07:52:11;2.33;;;1.30;;
59974;SDS011;62136;-35.664;-63.766;2024-02-21T07:54:38;2.35;;;1.42;;
59974;SDS011;62136;-35.664;-63.766;2024-02-21T07:57:09;1.83;;;1.30;;
59974;SDS011;62136;-35.664;-63.766;2024-02-21T07:59:36;2.35;;;1.42;;
59974;SDS011;62136;-35.664;-63.766;2024-02-21T08:02:03;1.88;;;1.20;;
59974;SDS011;62136;-35.664;-63.766;2024-02-21T08:04:32;1.60;;;1.30;;
59974;SDS011;62136;-35.664;-63.766;2024-02-21T08:06:59;5.60;;;1.55;;
59974;SDS011;62136;-35.664;-63.766;2024-02-21T08:09:29;2.03;;;1.52;;
59974;SDS011;62136;-35.664;-63.766;2024-02-21T08:11:57;1.42;;;1.30;;
59974;SDS011;62136;-35.664;-63.766;2024-02-21T08:14:24;1.48;;;1.38;;
59974;SDS011;62136;-35.664;-63.766;2024-02-21T08:16:51;1.73;;;1.42;;
59974;SDS011;62136;-35.664;-63.766;2024-02-21T08:19:19;1.42;;;1.33;;
59974;SDS011;62136;-35.664;-63.766;2024-02-21T08:21:46;1.38;;;1.27;;
59974;SDS011;62136;-35.664;-63.766;2024-02-21T08:24:13;1.27;;;1.13;;
59974;SDS011;62136;-35.664;-63.766;2024-02-21T08:26:41;1.23;;;1.10;;
59974;SDS011;62136;-35.664;-63.766;2024-02-21T08:29:10;2.00;;;1.30;;
59974;SDS011;62136;-35.664;-63.766;2024-02-21T08:31:40;1.23;;;1.13;;
59974;SDS011;62136;-35.664;-63.766;2024-02-21T08:34:07;1.85;;;1.40;;
59974;SDS011;62136;-35.664;-63.766;2024-02-21T08:36:34;2.22;;;1.70;;
59974;SDS011;62136;-35.664;-63.766;2024-02-21T08:39:02;1.58;;;1.48;;
59974;SDS011;62136;-35.664;-63.766;2024-02-21T08:41:30;2.20;;;1.10;;
59974;SDS011;62136;-35.664;-63.766;2024-02-21T08:43:58;3.10;;;1.38;;
59974;SDS011;62136;-35.664;-63.766;2024-02-21T08:46:25;2.03;;;1.30;;
59974;SDS011;62136;-35.664;-63.766;2024-02-21T08:48:55;1.90;;;1.30;;
59974;SDS011;62136;-35.664;-63.766;2024-02-21T08:51:22;2.13;;;1.42;;
59974;SDS011;62136;-35.664;-63.766;2024-02-21T08:53:49;3.03;;;1.50;;
59974;SDS011;62136;-35.664;-63.766;2024-02-21T08:56:17;2.30;;;1.33;;
59974;SDS011;62136;-35.664;-63.766;2024-02-21T08:58:44;1.40;;;1.30;;
59974;SDS011;62136;-35.664;-63.766;2024-02-21T09:01:12;2.03;;;1.38;;
59974;SDS011;62136;-35.664;-63.766;2024-02-21T09:03:40;3.05;;;1.20;;
59974;SDS011;62136;-35.664;-63.766;2024-02-21T09:06:07;1.40;;;1.30;;
59974;SDS011;62136;-35.664;-63.766;2024-02-21T09:08:36;3.20;;;1.60;;
59974;SDS011;62136;-35.664;-63.766;2024-02-21T09:11:03;1.73;;;1.30;;
59974;SDS011;62136;-35.664;-63.766;2024-02-21T09:13:32;2.20;;;1.20;;
59974;SDS011;62136;-35.664;-63.766;2024-02-21T09:15:58;1.50;;;1.27;;
59974;SDS011;62136;-35.664;-63.766;2024-02-21T09:18:25;1.73;;;1.30;;
59974;SDS011;62136;-35.664;-63.766;2024-02-21T09:20:52;1.25;;;1.10;;
59974;SDS011;62136;-35.664;-63.766;2024-02-21T09:23:19;1.83;;;1.20;;
59974;SDS011;62136;-35.664;-63.766;2024-02-21T09:25:46;2.35;;;1.23;;
59974;SDS011;62136;-35.664;-63.766;2024-02-21T09:28:13;1.40;;;1.30;;
59974;SDS011;62136;-35.664;-63.766;2024-02-21T09:30:40;1.20;;;1.10;;
59974;SDS011;62136;-35.664;-63.766;2024-02-21T09:33:07;2.22;;;1.50;;
59974;SDS011;62136;-35.664;-63.766;2024-02-21T09:35:34;1.88;;;1.30;;
59974;SDS011;62136;-35.664;-63.766;2024-02-21T09:38:01;1.23;;;1.20;;
59974;SDS011;62136;-35.664;-63.766;2024-02-21T09:40:28;2.08;;;1.30;;
59974;SDS011;62136;-35.664;-63.766;2024-02-21T09:43:01;3.22;;;1.60;;
59974;SDS011;62136;-35.664;-63.766;2024-02-21T09:45:30;2.00;;;1.27;;
59974;SDS011;62136;-35.664;-63.766;2024-02-21T09:48:01;2.17;;;1.20;;
59974;SDS011;62136;-35.664;-63.766;2024-02-21T09:50:41;1.60;;;1.48;;
59974;SDS011;62136;-35.664;-63.766;2024-02-21T09:53:11;1.27;;;1.17;;
59974;SDS011;62136;-35.664;-63.766;2024-02-21T09:55:40;1.80;;;1.10;;
59974;SDS011;62136;-35.664;-63.766;2024-02-21T09:58:09;1.52;;;1.25;;
59974;SDS011;62136;-35.664;-63.766;2024-02-21T10:00:37;2.05;;;1.10;;
59974;SDS011;62136;-35.664;-63.766;2024-02-21T10:03:05;2.65;;;1.40;;
59974;SDS011;62136;-35.664;-63.766;2024-02-21T10:05:35;1.08;;;1.02;;
59974;SDS011;62136;-35.664;-63.766;2024-02-21T10:08:03;2.25;;;1.10;;
59974;SDS011;62136;-35.664;-63.766;2024-02-21T10:10:40;2.08;;;1.30;;
59974;SDS011;62136;-35.664;-63.766;2024-02-21T10:13:11;2.10;;;1.42;;
59974;SDS011;62136;-35.664;-63.766;2024-02-21T10:16:02;1.88;;;1.20;;
59974;SDS011;62136;-35.664;-63.766;2024-02-21T10:18:33;2.22;;;1.40;;
59974;SDS011;62136;-35.664;-63.766;2024-02-21T10:21:01;1.52;;;1.20;;
59974;SDS011;62136;-35.664;-63.766;2024-02-21T10:23:51;3.55;;;1.25;;
59974;SDS011;62136;-35.664;-63.766;2024-02-21T10:26:20;1.90;;;1.10;;
59974;SDS011;62136;-35.664;-63.766;2024-02-21T10:28:48;2.70;;;1.73;;
59974;SDS011;62136;-35.664;-63.766;2024-02-21T10:31:24;2.17;;;1.23;;
59974;SDS011;62136;-35.664;-63.766;2024-02-21T10:33:55;2.97;;;1.30;;
59974;SDS011;62136;-35.664;-63.766;2024-02-21T10:36:24;1.95;;;1.33;;
59974;SDS011;62136;-35.664;-63.766;2024-02-21T10:38:52;2.00;;;1.30;;
59974;SDS011;62136;-35.664;-63.766;2024-02-21T10:41:20;3.53;;;1.42;;
59974;SDS011;62136;-35.664;-63.766;2024-02-21T10:43:52;2.25;;;1.10;;
59974;SDS011;62136;-35.664;-63.766;2024-02-21T10:46:25;3.90;;;1.35;;
59974;SDS011;62136;-35.664;-63.766;2024-02-21T10:51:33;2.10;;;1.33;;
59974;SDS011;62136;-35.664;-63.766;2024-02-21T10:56:44;1.40;;;1.23;;
59974;SDS011;62136;-35.664;-63.766;2024-02-21T10:59:12;3.45;;;1.30;;
59974;SDS011;62136;-35.664;-63.766;2024-02-21T11:01:40;2.53;;;1.30;;
59974;SDS011;62136;-35.664;-63.766;2024-02-21T11:04:08;3.65;;;1.55;;
59974;SDS011;62136;-35.664;-63.766;2024-02-21T11:06:38;2.80;;;1.73;;
59974;SDS011;62136;-35.664;-63.766;2024-02-21T11:09:07;4.43;;;1.55;;
59974;SDS011;62136;-35.664;-63.766;2024-02-21T11:11:39;2.38;;;1.67;;
59974;SDS011;62136;-35.664;-63.766;2024-02-21T11:14:27;2.90;;;1.50;;
59974;SDS011;62136;-35.664;-63.766;2024-02-21T11:16:54;2.05;;;1.70;;
59974;SDS011;62136;-35.664;-63.766;2024-02-21T11:19:22;4.65;;;1.73;;
59974;SDS011;62136;-35.664;-63.766;2024-02-21T11:21:51;3.95;;;1.70;;
59974;SDS011;62136;-35.664;-63.766;2024-02-21T11:24:28;3.28;;;1.70;;
59974;SDS011;62136;-35.664;-63.766;2024-02-21T11:27:15;3.95;;;1.80;;
59974;SDS011;62136;-35.664;-63.766;2024-02-21T11:29:46;4.70;;;1.90;;
59974;SDS011;62136;-35.664;-63.766;2024-02-21T11:32:18;4.32;;;2.30;;
59974;SDS011;62136;-35.664;-63.766;2024-02-21T11:34:59;6.57;;;2.92;;
59974;SDS011;62136;-35.664;-63.766;2024-02-21T11:37:28;4.70;;;3.17;;
59974;SDS011;62136;-35.664;-63.766;2024-02-21T11:39:59;9.85;;;3.67;;
59974;SDS011;62136;-35.664;-63.766;2024-02-21T11:42:26;8.25;;;3.60;;
59974;SDS011;62136;-35.664;-63.766;2024-02-21T11:44:55;9.40;;;5.28;;
59974;SDS011;62136;-35.664;-63.766;2024-02-21T11:47:23;7.55;;;4.55;;
59974;SDS011;62136;-35.664;-63.766;2024-02-21T11:49:51;8.30;;;4.35;;
59974;SDS011;62136;-35.664;-63.766;2024-02-21T11:52:24;9.85;;;5.25;;
59974;SDS011;62136;-35.664;-63.766;2024-02-21T11:54:53;9.52;;;6.20;;
59974;SDS011;62136;-35.664;-63.766;2024-02-21T11:57:23;8.95;;;4.97;;
59974;SDS011;62136;-35.664;-63.766;2024-02-21T11:59:53;7.43;;;3.63;;
59974;SDS011;62136;-35.664;-63.766;2024-02-21T12:02:20;5.82;;;3.72;;
59974;SDS011;62136;-35.664;-63.766;2024-02-21T12:04:48;8.68;;;6.13;;
59974;SDS011;62136;-35.664;-63.766;2024-02-21T12:07:15;9.00;;;4.43;;
59974;SDS011;62136;-35.664;-63.766;2024-02-21T12:09:43;8.90;;;4.07;;
59974;SDS011;62136;-35.664;-63.766;2024-02-21T12:12:10;7.97;;;4.53;;
59974;SDS011;62136;-35.664;-63.766;2024-02-21T12:14:37;7.30;;;4.40;;
59974;SDS011;62136;-35.664;-63.766;2024-02-21T12:17:04;9.65;;;5.07;;
59974;SDS011;62136;-35.664;-63.766;2024-02-21T12:19:34;12.63;;;6.97;;
59974;SDS011;62136;-35.664;-63.766;2024-02-21T12:22:01;11.70;;;7.18;;
59974;SDS011;62136;-35.664;-63.766;2024-02-21T12:24:31;10.98;;;7.28;;
59974;SDS011;62136;-35.664;-63.766;2024-02-21T12:26:58;9.98;;;6.32;;
59974;SDS011;62136;-35.664;-63.766;2024-02-21T12:29:29;11.20;;;7.30;;
59974;SDS011;62136;-35.664;-63.766;2024-02-21T12:31:56;10.35;;;6.45;;
59974;SDS011;62136;-35.664;-63.766;2024-02-21T12:34:23;8.73;;;6.85;;
59974;SDS011;62136;-35.664;-63.766;2024-02-21T12:36:53;10.10;;;6.22;;
59974;SDS011;62136;-35.664;-63.766;2024-02-21T12:39:20;9.85;;;6.45;;
59974;SDS011;62136;-35.664;-63.766;2024-02-21T12:41:47;9.13;;;5.88;;
59974;SDS011;62136;-35.664;-63.766;2024-02-21T12:44:14;11.00;;;6.80;;
59974;SDS011;62136;-35.664;-63.766;2024-02-21T12:46:42;11.02;;;6.90;;
59974;SDS011;62136;-35.664;-63.766;2024-02-21T12:49:10;9.80;;;6.72;;
59974;SDS011;62136;-35.664;-63.766;2024-02-21T12:51:37;10.75;;;6.80;;
59974;SDS011;62136;-35.664;-63.766;2024-02-21T12:54:05;9.43;;;6.57;;
59974;SDS011;62136;-35.664;-63.766;2024-02-21T12:56:32;12.27;;;7.50;;
59974;SDS011;62136;-35.664;-63.766;2024-02-21T12:58:59;13.60;;;8.55;;
59974;SDS011;62136;-35.664;-63.766;2024-02-21T13:01:26;18.40;;;10.77;;
59974;SDS011;62136;-35.664;-63.766;2024-02-21T13:03:54;16.75;;;9.98;;
59974;SDS011;62136;-35.664;-63.766;2024-02-21T13:06:27;14.65;;;9.40;;
59974;SDS011;62136;-35.664;-63.766;2024-02-21T13:08:54;18.67;;;9.93;;
59974;SDS011;62136;-35.664;-63.766;2024-02-21T13:11:21;19.95;;;12.20;;
59974;SDS011;62136;-35.664;-63.766;2024-02-21T13:13:52;19.60;;;14.43;;
59974;SDS011;62136;-35.664;-63.766;2024-02-21T13:16:19;19.17;;;12.57;;
59974;SDS011;62136;-35.664;-63.766;2024-02-21T13:18:48;19.27;;;15.77;;
59974;SDS011;62136;-35.664;-63.766;2024-02-21T13:21:15;22.25;;;18.85;;
59974;SDS011;62136;-35.664;-63.766;2024-02-21T13:23:42;24.98;;;21.10;;
59974;SDS011;62136;-35.664;-63.766;2024-02-21T13:26:10;36.28;;;32.80;;
59974;SDS011;62136;-35.664;-63.766;2024-02-21T13:28:38;42.40;;;38.75;;
59974;SDS011;62136;-35.664;-63.766;2024-02-21T13:31:05;69.18;;;62.83;;
59974;SDS011;62136;-35.664;-63.766;2024-02-21T13:33:32;147.88;;;133.50;;
59974;SDS011;62136;-35.664;-63.766;2024-02-21T13:35:59;169.90;;;153.18;;
59974;SDS011;62136;-35.664;-63.766;2024-02-21T13:38:27;153.38;;;138.60;;
59974;SDS011;62136;-35.664;-63.766;2024-02-21T13:40:54;219.73;;;199.32;;
59974;SDS011;62136;-35.664;-63.766;2024-02-21T13:43:21;233.32;;;211.98;;
59974;SDS011;62136;-35.664;-63.766;2024-02-21T13:45:58;266.95;;;242.65;;
59974;SDS011;62136;-35.664;-63.766;2024-02-21T13:48:28;265.38;;;241.20;;
59974;SDS011;62136;-35.664;-63.766;2024-02-21T13:50:55;351.00;;;318.00;;
59974;SDS011;62136;-35.664;-63.766;2024-02-21T13:53:22;309.63;;;280.65;;
59974;SDS011;62136;-35.664;-63.766;2024-02-21T13:55:49;353.02;;;320.27;;
59974;SDS011;62136;-35.664;-63.766;2024-02-21T13:58:16;358.73;;;326.20;;
59974;SDS011;62136;-35.664;-63.766;2024-02-21T14:00:44;369.95;;;334.98;;
59974;SDS011;62136;-35.664;-63.766;2024-02-21T14:03:11;347.08;;;315.98;;
59974;SDS011;62136;-35.664;-63.766;2024-02-21T14:05:38;294.88;;;268.60;;
59974;SDS011;62136;-35.664;-63.766;2024-02-21T14:08:06;299.02;;;272.50;;
59974;SDS011;62136;-35.664;-63.766;2024-02-21T14:10:33;310.42;;;283.15;;
59974;SDS011;62136;-35.664;-63.766;2024-02-21T14:13:00;287.75;;;262.40;;
59974;SDS011;62136;-35.664;-63.766;2024-02-21T14:15:27;289.70;;;264.83;;
59974;SDS011;62136;-35.664;-63.766;2024-02-21T14:17:54;293.08;;;267.38;;